sensor_id;sensor_type;location;lat;lon;timestamp;P1;durP1;ratioP1;P2;durP2;ratioP2
54705;SDS011;40603;48.774;8.916;2023-02-25T00:02:08;11.38;;;6.30;;
54705;SDS011;40603;48.774;8.916;2023-02-25T00:04:33;13.13;;;5.95;;
54705;SDS011;40603;48.774;8.916;2023-02-25T00:06:59;15.50;;;6.15;;
54705;SDS011;40603;48.774;8.916;2023-02-25T00:09:24;10.95;;;5.63;;
54705;SDS011;40603;48.774;8.916;2023-02-25T00:11:51;10.48;;;6.45;;
54705;SDS011;40603;48.774;8.916;2023-02-25T00:14:16;10.25;;;5.72;;
54705;SDS011;40603;48.774;8.916;2023-02-25T00:16:41;11.07;;;5.53;;
54705;SDS011;40603;48.774;8.916;2023-02-25T00:19:07;13.13;;;6.53;;
54705;SDS011;40603;48.774;8.916;2023-02-25T00:21:32;11.18;;;6.88;;
54705;SDS011;40603;48.774;8.916;2023-02-25T00:23:57;10.55;;;5.93;;
54705;SDS011;40603;48.774;8.916;2023-02-25T00:26:23;12.00;;;6.10;;
54705;SDS011;40603;48.774;8.916;2023-02-25T00:28:48;9.95;;;5.50;;
54705;SDS011;40603;48.774;8.916;2023-02-25T00:31:18;11.13;;;6.63;;
54705;SDS011;40603;48.774;8.916;2023-02-25T00:33:45;10.80;;;6.13;;
54705;SDS011;40603;48.774;8.916;2023-02-25T00:36:11;10.70;;;6.72;;
54705;SDS011;40603;48.774;8.916;2023-02-25T00:38:38;11.82;;;6.38;;
54705;SDS011;40603;48.774;8.916;2023-02-25T00:41:05;10.57;;;6.45;;
54705;SDS011;40603;48.774;8.916;2023-02-25T00:43:36;12.00;;;6.32;;
54705;SDS011;40603;48.774;8.916;2023-02-25T00:46:02;12.93;;;5.93;;
54705;SDS011;40603;48.774;8.916;2023-02-25T00:48:27;14.30;;;6.20;;
54705;SDS011;40603;48.774;8.916;2023-02-25T00:50:52;11.02;;;5.95;;
54705;SDS011;40603;48.774;8.916;2023-02-25T00:53:18;10.23;;;5.80;;
54705;SDS011;40603;48.774;8.916;2023-02-25T00:55:43;15.82;;;7.03;;
54705;SDS011;40603;48.774;8.916;2023-02-25T00:58:08;11.93;;;5.47;;
54705;SDS011;40603;48.774;8.916;2023-02-25T01:00:33;12.00;;;6.03;;
54705;SDS011;40603;48.774;8.916;2023-02-25T01:02:59;12.27;;;5.53;;
54705;SDS011;40603;48.774;8.916;2023-02-25T01:05:24;13.48;;;5.50;;
54705;SDS011;40603;48.774;8.916;2023-02-25T01:07:49;9.93;;;5.80;;
54705;SDS011;40603;48.774;8.916;2023-02-25T01:10:15;13.48;;;5.32;;
54705;SDS011;40603;48.774;8.916;2023-02-25T01:12:40;12.90;;;5.97;;
54705;SDS011;40603;48.774;8.916;2023-02-25T01:15:06;11.90;;;5.40;;
54705;SDS011;40603;48.774;8.916;2023-02-25T01:17:31;8.25;;;5.60;;
54705;SDS011;40603;48.774;8.916;2023-02-25T01:19:57;10.02;;;5.32;;
54705;SDS011;40603;48.774;8.916;2023-02-25T01:22:22;13.43;;;5.95;;
54705;SDS011;40603;48.774;8.916;2023-02-25T01:24:48;10.32;;;5.55;;
54705;SDS011;40603;48.774;8.916;2023-02-25T01:27:13;11.57;;;5.80;;
54705;SDS011;40603;48.774;8.916;2023-02-25T01:29:38;11.82;;;5.68;;
54705;SDS011;40603;48.774;8.916;2023-02-25T01:32:08;11.98;;;5.97;;
54705;SDS011;40603;48.774;8.916;2023-02-25T01:34:35;11.65;;;5.75;;
54705;SDS011;40603;48.774;8.916;2023-02-25T01:37:00;11.27;;;5.50;;
54705;SDS011;40603;48.774;8.916;2023-02-25T01:39:26;11.15;;;5.05;;
54705;SDS011;40603;48.774;8.916;2023-02-25T01:41:52;10.20;;;4.95;;
54705;SDS011;40603;48.774;8.916;2023-02-25T01:44:20;10.10;;;5.40;;
54705;SDS011;40603;48.774;8.916;2023-02-25T01:46:49;13.93;;;5.22;;
54705;SDS011;40603;48.774;8.916;2023-02-25T01:51:41;14.20;;;5.80;;
54705;SDS011;40603;48.774;8.916;2023-02-25T01:54:08;9.68;;;5.63;;
54705;SDS011;40603;48.774;8.916;2023-02-25T01:56:35;12.70;;;7.50;;
54705;SDS011;40603;48.774;8.916;2023-02-25T01:59:03;14.60;;;7.03;;
54705;SDS011;40603;48.774;8.916;2023-02-25T02:01:28;13.85;;;6.65;;
54705;SDS011;40603;48.774;8.916;2023-02-25T02:03:56;16.33;;;6.65;;
54705;SDS011;40603;48.774;8.916;2023-02-25T02:06:23;13.23;;;7.10;;
54705;SDS011;40603;48.774;8.916;2023-02-25T02:08:52;12.88;;;6.03;;
54705;SDS011;40603;48.774;8.916;2023-02-25T02:11:18;10.50;;;5.70;;
54705;SDS011;40603;48.774;8.916;2023-02-25T02:13:44;14.38;;;6.50;;
54705;SDS011;40603;48.774;8.916;2023-02-25T02:25:03;9.90;;;4.80;;
54705;SDS011;40603;48.774;8.916;2023-02-25T02:28:06;16.13;;;5.50;;
54705;SDS011;40603;48.774;8.916;2023-02-25T02:31:15;12.82;;;5.15;;
54705;SDS011;40603;48.774;8.916;2023-02-25T02:42:17;11.73;;;5.47;;
54705;SDS011;40603;48.774;8.916;2023-02-25T02:44:51;15.60;;;6.60;;
54705;SDS011;40603;48.774;8.916;2023-02-25T02:47:27;12.65;;;5.88;;
54705;SDS011;40603;48.774;8.916;2023-02-25T02:49:59;10.48;;;5.03;;
54705;SDS011;40603;48.774;8.916;2023-02-25T02:52:38;14.73;;;4.55;;
54705;SDS011;40603;48.774;8.916;2023-02-25T02:55:09;11.10;;;6.13;;
54705;SDS011;40603;48.774;8.916;2023-02-25T02:57:37;18.42;;;5.70;;
54705;SDS011;40603;48.774;8.916;2023-02-25T03:00:08;13.18;;;5.38;;
54705;SDS011;40603;48.774;8.916;2023-02-25T03:02:41;9.25;;;4.70;;
54705;SDS011;40603;48.774;8.916;2023-02-25T03:05:10;9.55;;;4.28;;
54705;SDS011;40603;48.774;8.916;2023-02-25T03:07:40;12.68;;;5.00;;
54705;SDS011;40603;48.774;8.916;2023-02-25T03:10:08;9.68;;;4.45;;
54705;SDS011;40603;48.774;8.916;2023-02-25T03:12:37;13.13;;;5.67;;
54705;SDS011;40603;48.774;8.916;2023-02-25T03:15:03;11.45;;;4.55;;
54705;SDS011;40603;48.774;8.916;2023-02-25T03:17:30;9.50;;;4.40;;
54705;SDS011;40603;48.774;8.916;2023-02-25T03:22:43;7.03;;;3.15;;
54705;SDS011;40603;48.774;8.916;2023-02-25T03:25:14;9.35;;;3.80;;
54705;SDS011;40603;48.774;8.916;2023-02-25T03:30:08;7.40;;;3.55;;
54705;SDS011;40603;48.774;8.916;2023-02-25T03:32:39;8.45;;;3.15;;
54705;SDS011;40603;48.774;8.916;2023-02-25T03:35:08;8.55;;;3.15;;
54705;SDS011;40603;48.774;8.916;2023-02-25T03:37:35;9.75;;;3.60;;
54705;SDS011;40603;48.774;8.916;2023-02-25T03:40:02;14.93;;;3.92;;
54705;SDS011;40603;48.774;8.916;2023-02-25T03:42:35;10.07;;;4.90;;
54705;SDS011;40603;48.774;8.916;2023-02-25T03:45:03;14.27;;;3.45;;
54705;SDS011;40603;48.774;8.916;2023-02-25T03:47:30;8.15;;;4.45;;
54705;SDS011;40603;48.774;8.916;2023-02-25T03:50:05;14.90;;;6.10;;
54705;SDS011;40603;48.774;8.916;2023-02-25T03:52:32;13.30;;;6.20;;
54705;SDS011;40603;48.774;8.916;2023-02-25T03:54:58;9.25;;;4.57;;
54705;SDS011;40603;48.774;8.916;2023-02-25T03:57:24;8.05;;;3.47;;
54705;SDS011;40603;48.774;8.916;2023-02-25T03:59:53;3.97;;;2.78;;
54705;SDS011;40603;48.774;8.916;2023-02-25T04:02:22;10.85;;;5.45;;
54705;SDS011;40603;48.774;8.916;2023-02-25T04:04:49;10.60;;;4.03;;
54705;SDS011;40603;48.774;8.916;2023-02-25T04:07:14;8.23;;;3.20;;
54705;SDS011;40603;48.774;8.916;2023-02-25T04:09:40;6.95;;;2.67;;
54705;SDS011;40603;48.774;8.916;2023-02-25T04:12:05;5.82;;;2.17;;
54705;SDS011;40603;48.774;8.916;2023-02-25T04:14:32;7.30;;;2.88;;
54705;SDS011;40603;48.774;8.916;2023-02-25T04:16:57;6.20;;;1.85;;
54705;SDS011;40603;48.774;8.916;2023-02-25T04:19:22;5.78;;;1.95;;
54705;SDS011;40603;48.774;8.916;2023-02-25T04:21:47;12.23;;;1.88;;
54705;SDS011;40603;48.774;8.916;2023-02-25T04:24:13;6.25;;;2.20;;
54705;SDS011;40603;48.774;8.916;2023-02-25T04:26:38;10.40;;;2.95;;
54705;SDS011;40603;48.774;8.916;2023-02-25T04:29:03;8.25;;;1.98;;
54705;SDS011;40603;48.774;8.916;2023-02-25T04:31:29;7.40;;;2.20;;
54705;SDS011;40603;48.774;8.916;2023-02-25T04:33:54;13.23;;;3.30;;
54705;SDS011;40603;48.774;8.916;2023-02-25T04:36:29;6.82;;;2.72;;
54705;SDS011;40603;48.774;8.916;2023-02-25T04:38:56;3.97;;;2.03;;
54705;SDS011;40603;48.774;8.916;2023-02-25T04:41:22;6.47;;;1.85;;
54705;SDS011;40603;48.774;8.916;2023-02-25T04:43:48;4.13;;;1.55;;
54705;SDS011;40603;48.774;8.916;2023-02-25T04:46:13;13.13;;;3.60;;
54705;SDS011;40603;48.774;8.916;2023-02-25T04:48:39;7.70;;;3.17;;
54705;SDS011;40603;48.774;8.916;2023-02-25T04:51:05;9.23;;;2.25;;
54705;SDS011;40603;48.774;8.916;2023-02-25T04:53:31;10.20;;;2.85;;
54705;SDS011;40603;48.774;8.916;2023-02-25T04:56:00;8.27;;;2.50;;
54705;SDS011;40603;48.774;8.916;2023-02-25T04:58:26;8.35;;;2.42;;
54705;SDS011;40603;48.774;8.916;2023-02-25T05:00:51;6.82;;;1.23;;
54705;SDS011;40603;48.774;8.916;2023-02-25T05:03:17;8.60;;;1.73;;
54705;SDS011;40603;48.774;8.916;2023-02-25T05:05:42;6.65;;;1.73;;
54705;SDS011;40603;48.774;8.916;2023-02-25T05:08:07;5.22;;;1.40;;
54705;SDS011;40603;48.774;8.916;2023-02-25T05:10:33;10.25;;;1.90;;
54705;SDS011;40603;48.774;8.916;2023-02-25T05:12:58;4.40;;;2.17;;
54705;SDS011;40603;48.774;8.916;2023-02-25T05:15:23;7.70;;;2.58;;
54705;SDS011;40603;48.774;8.916;2023-02-25T05:17:49;4.35;;;1.58;;
54705;SDS011;40603;48.774;8.916;2023-02-25T05:20:14;5.32;;;1.40;;
54705;SDS011;40603;48.774;8.916;2023-02-25T05:22:40;5.03;;;1.40;;
54705;SDS011;40603;48.774;8.916;2023-02-25T05:25:06;5.72;;;1.92;;
54705;SDS011;40603;48.774;8.916;2023-02-25T05:27:32;8.30;;;1.65;;
54705;SDS011;40603;48.774;8.916;2023-02-25T05:29:58;7.35;;;1.80;;
54705;SDS011;40603;48.774;8.916;2023-02-25T05:32:23;9.45;;;1.63;;
54705;SDS011;40603;48.774;8.916;2023-02-25T05:34:49;1.70;;;1.10;;
54705;SDS011;40603;48.774;8.916;2023-02-25T05:37:14;7.43;;;1.40;;
54705;SDS011;40603;48.774;8.916;2023-02-25T05:39:39;4.53;;;1.00;;
54705;SDS011;40603;48.774;8.916;2023-02-25T05:42:04;6.57;;;1.30;;
54705;SDS011;40603;48.774;8.916;2023-02-25T05:44:30;5.28;;;1.50;;
54705;SDS011;40603;48.774;8.916;2023-02-25T05:46:55;5.70;;;1.30;;
54705;SDS011;40603;48.774;8.916;2023-02-25T05:49:21;3.58;;;1.35;;
54705;SDS011;40603;48.774;8.916;2023-02-25T05:51:47;5.43;;;1.40;;
54705;SDS011;40603;48.774;8.916;2023-02-25T05:54:13;4.75;;;1.50;;
54705;SDS011;40603;48.774;8.916;2023-02-25T05:56:38;3.10;;;1.00;;
54705;SDS011;40603;48.774;8.916;2023-02-25T05:59:03;4.88;;;1.30;;
54705;SDS011;40603;48.774;8.916;2023-02-25T06:01:29;3.35;;;1.33;;
54705;SDS011;40603;48.774;8.916;2023-02-25T06:03:55;2.90;;;1.30;;
54705;SDS011;40603;48.774;8.916;2023-02-25T06:06:22;4.60;;;1.05;;
54705;SDS011;40603;48.774;8.916;2023-02-25T06:08:48;7.50;;;1.23;;
54705;SDS011;40603;48.774;8.916;2023-02-25T06:11:16;2.90;;;1.42;;
54705;SDS011;40603;48.774;8.916;2023-02-25T06:13:46;5.55;;;1.55;;
54705;SDS011;40603;48.774;8.916;2023-02-25T06:16:13;6.25;;;1.25;;
54705;SDS011;40603;48.774;8.916;2023-02-25T06:18:38;7.00;;;1.40;;
54705;SDS011;40603;48.774;8.916;2023-02-25T06:21:09;5.15;;;1.50;;
54705;SDS011;40603;48.774;8.916;2023-02-25T06:23:36;4.75;;;1.35;;
54705;SDS011;40603;48.774;8.916;2023-02-25T06:26:04;3.10;;;1.48;;
54705;SDS011;40603;48.774;8.916;2023-02-25T06:28:30;2.40;;;1.00;;
54705;SDS011;40603;48.774;8.916;2023-02-25T06:30:55;5.22;;;1.50;;
54705;SDS011;40603;48.774;8.916;2023-02-25T06:33:20;2.13;;;1.20;;
54705;SDS011;40603;48.774;8.916;2023-02-25T06:35:50;6.25;;;1.40;;
54705;SDS011;40603;48.774;8.916;2023-02-25T06:38:16;5.70;;;1.40;;
54705;SDS011;40603;48.774;8.916;2023-02-25T06:40:41;2.00;;;1.05;;
54705;SDS011;40603;48.774;8.916;2023-02-25T06:43:06;3.53;;;1.40;;
54705;SDS011;40603;48.774;8.916;2023-02-25T06:45:32;5.55;;;1.50;;
54705;SDS011;40603;48.774;8.916;2023-02-25T06:47:57;5.07;;;1.40;;
54705;SDS011;40603;48.774;8.916;2023-02-25T06:50:22;2.25;;;1.45;;
54705;SDS011;40603;48.774;8.916;2023-02-25T06:52:47;5.75;;;1.40;;
54705;SDS011;40603;48.774;8.916;2023-02-25T06:55:13;2.47;;;1.13;;
54705;SDS011;40603;48.774;8.916;2023-02-25T06:57:38;6.72;;;1.17;;
54705;SDS011;40603;48.774;8.916;2023-02-25T07:00:04;3.95;;;1.30;;
54705;SDS011;40603;48.774;8.916;2023-02-25T07:02:30;4.50;;;1.00;;
54705;SDS011;40603;48.774;8.916;2023-02-25T07:04:55;3.42;;;1.17;;
54705;SDS011;40603;48.774;8.916;2023-02-25T07:07:21;4.07;;;1.55;;
54705;SDS011;40603;48.774;8.916;2023-02-25T07:09:46;4.05;;;1.30;;
54705;SDS011;40603;48.774;8.916;2023-02-25T07:12:12;4.95;;;1.10;;
54705;SDS011;40603;48.774;8.916;2023-02-25T07:14:37;4.50;;;1.15;;
54705;SDS011;40603;48.774;8.916;2023-02-25T07:17:02;2.42;;;1.00;;
54705;SDS011;40603;48.774;8.916;2023-02-25T07:19:28;2.38;;;1.13;;
54705;SDS011;40603;48.774;8.916;2023-02-25T07:21:54;4.60;;;1.20;;
54705;SDS011;40603;48.774;8.916;2023-02-25T07:24:19;4.57;;;1.10;;
54705;SDS011;40603;48.774;8.916;2023-02-25T07:26:44;6.38;;;1.30;;
54705;SDS011;40603;48.774;8.916;2023-02-25T07:29:10;7.03;;;1.13;;
54705;SDS011;40603;48.774;8.916;2023-02-25T07:31:37;3.90;;;1.30;;
54705;SDS011;40603;48.774;8.916;2023-02-25T07:34:02;1.90;;;1.02;;
54705;SDS011;40603;48.774;8.916;2023-02-25T07:36:32;3.85;;;0.98;;
54705;SDS011;40603;48.774;8.916;2023-02-25T07:38:59;6.07;;;1.13;;
54705;SDS011;40603;48.774;8.916;2023-02-25T07:41:25;3.70;;;1.38;;
54705;SDS011;40603;48.774;8.916;2023-02-25T07:43:51;3.83;;;0.98;;
54705;SDS011;40603;48.774;8.916;2023-02-25T07:46:17;4.10;;;0.88;;
54705;SDS011;40603;48.774;8.916;2023-02-25T07:48:42;4.05;;;1.23;;
54705;SDS011;40603;48.774;8.916;2023-02-25T07:51:09;3.95;;;1.05;;
54705;SDS011;40603;48.774;8.916;2023-02-25T07:53:35;4.32;;;0.85;;
54705;SDS011;40603;48.774;8.916;2023-02-25T07:56:01;5.68;;;1.27;;
54705;SDS011;40603;48.774;8.916;2023-02-25T07:58:26;5.85;;;1.05;;
54705;SDS011;40603;48.774;8.916;2023-02-25T08:00:52;5.20;;;1.15;;
54705;SDS011;40603;48.774;8.916;2023-02-25T08:03:18;5.75;;;1.25;;
54705;SDS011;40603;48.774;8.916;2023-02-25T08:05:44;4.28;;;1.20;;
54705;SDS011;40603;48.774;8.916;2023-02-25T08:08:09;3.08;;;1.02;;
54705;SDS011;40603;48.774;8.916;2023-02-25T08:10:35;5.82;;;1.30;;
54705;SDS011;40603;48.774;8.916;2023-02-25T08:13:00;8.45;;;1.25;;
54705;SDS011;40603;48.774;8.916;2023-02-25T08:15:26;2.47;;;0.98;;
54705;SDS011;40603;48.774;8.916;2023-02-25T08:17:51;6.53;;;1.38;;
54705;SDS011;40603;48.774;8.916;2023-02-25T08:20:17;4.47;;;1.13;;
54705;SDS011;40603;48.774;8.916;2023-02-25T08:22:42;5.60;;;1.20;;
54705;SDS011;40603;48.774;8.916;2023-02-25T08:25:08;6.80;;;1.27;;
54705;SDS011;40603;48.774;8.916;2023-02-25T08:27:34;8.38;;;1.20;;
54705;SDS011;40603;48.774;8.916;2023-02-25T08:30:00;3.22;;;1.40;;
54705;SDS011;40603;48.774;8.916;2023-02-25T08:32:25;7.63;;;1.33;;
54705;SDS011;40603;48.774;8.916;2023-02-25T08:34:51;4.05;;;1.25;;
54705;SDS011;40603;48.774;8.916;2023-02-25T08:37:17;4.38;;;1.33;;
54705;SDS011;40603;48.774;8.916;2023-02-25T08:39:43;7.93;;;1.70;;
54705;SDS011;40603;48.774;8.916;2023-02-25T08:42:08;5.85;;;1.30;;
54705;SDS011;40603;48.774;8.916;2023-02-25T08:44:35;1.85;;;1.20;;
54705;SDS011;40603;48.774;8.916;2023-02-25T08:47:01;7.70;;;1.40;;
54705;SDS011;40603;48.774;8.916;2023-02-25T08:49:26;7.40;;;1.33;;
54705;SDS011;40603;48.774;8.916;2023-02-25T08:51:52;3.63;;;1.33;;
54705;SDS011;40603;48.774;8.916;2023-02-25T08:54:17;5.35;;;1.48;;
54705;SDS011;40603;48.774;8.916;2023-02-25T08:56:42;4.72;;;1.90;;
54705;SDS011;40603;48.774;8.916;2023-02-25T08:59:12;5.72;;;1.80;;
54705;SDS011;40603;48.774;8.916;2023-02-25T09:01:38;5.97;;;1.80;;
54705;SDS011;40603;48.774;8.916;2023-02-25T09:04:19;5.57;;;1.80;;
54705;SDS011;40603;48.774;8.916;2023-02-25T09:06:46;10.02;;;1.80;;
54705;SDS011;40603;48.774;8.916;2023-02-25T09:09:13;6.22;;;1.35;;
54705;SDS011;40603;48.774;8.916;2023-02-25T09:11:40;3.50;;;1.40;;
54705;SDS011;40603;48.774;8.916;2023-02-25T09:14:05;2.90;;;1.05;;
54705;SDS011;40603;48.774;8.916;2023-02-25T09:16:31;5.47;;;1.20;;
54705;SDS011;40603;48.774;8.916;2023-02-25T09:18:56;5.43;;;1.23;;
54705;SDS011;40603;48.774;8.916;2023-02-25T09:21:22;2.63;;;0.70;;
54705;SDS011;40603;48.774;8.916;2023-02-25T09:23:47;8.23;;;0.80;;
54705;SDS011;40603;48.774;8.916;2023-02-25T09:26:15;3.53;;;0.73;;
54705;SDS011;40603;48.774;8.916;2023-02-25T09:28:40;1.58;;;0.80;;
54705;SDS011;40603;48.774;8.916;2023-02-25T09:31:05;4.80;;;0.70;;
54705;SDS011;40603;48.774;8.916;2023-02-25T09:33:31;9.23;;;1.38;;
54705;SDS011;40603;48.774;8.916;2023-02-25T09:36:04;2.28;;;0.90;;
54705;SDS011;40603;48.774;8.916;2023-02-25T09:38:32;4.80;;;1.30;;
54705;SDS011;40603;48.774;8.916;2023-02-25T09:40:58;3.45;;;0.77;;
54705;SDS011;40603;48.774;8.916;2023-02-25T09:43:35;3.13;;;0.80;;
54705;SDS011;40603;48.774;8.916;2023-02-25T09:46:07;2.85;;;0.60;;
54705;SDS011;40603;48.774;8.916;2023-02-25T09:48:36;1.10;;;0.60;;
54705;SDS011;40603;48.774;8.916;2023-02-25T09:51:20;0.85;;;0.28;;
54705;SDS011;40603;48.774;8.916;2023-02-25T09:53:48;2.25;;;0.40;;
54705;SDS011;40603;48.774;8.916;2023-02-25T09:56:18;7.18;;;0.90;;
54705;SDS011;40603;48.774;8.916;2023-02-25T09:58:52;5.20;;;1.13;;
54705;SDS011;40603;48.774;8.916;2023-02-25T10:06:39;4.25;;;0.93;;
54705;SDS011;40603;48.774;8.916;2023-02-25T10:14:44;2.20;;;0.60;;
54705;SDS011;40603;48.774;8.916;2023-02-25T10:17:35;3.50;;;0.90;;
54705;SDS011;40603;48.774;8.916;2023-02-25T10:20:23;3.10;;;0.80;;
54705;SDS011;40603;48.774;8.916;2023-02-25T10:25:44;1.85;;;0.90;;
54705;SDS011;40603;48.774;8.916;2023-02-25T10:28:41;3.25;;;0.82;;
54705;SDS011;40603;48.774;8.916;2023-02-25T10:31:14;3.05;;;0.80;;
54705;SDS011;40603;48.774;8.916;2023-02-25T10:33:47;2.08;;;0.77;;
54705;SDS011;40603;48.774;8.916;2023-02-25T10:36:16;3.80;;;0.88;;
54705;SDS011;40603;48.774;8.916;2023-02-25T10:38:43;0.68;;;0.65;;
54705;SDS011;40603;48.774;8.916;2023-02-25T10:41:11;3.22;;;0.82;;
54705;SDS011;40603;48.774;8.916;2023-02-25T10:43:37;3.72;;;0.88;;
54705;SDS011;40603;48.774;8.916;2023-02-25T10:46:09;4.40;;;0.80;;
54705;SDS011;40603;48.774;8.916;2023-02-25T10:48:40;1.95;;;0.90;;
54705;SDS011;40603;48.774;8.916;2023-02-25T10:51:08;2.75;;;0.98;;
54705;SDS011;40603;48.774;8.916;2023-02-25T10:53:37;2.30;;;0.70;;
54705;SDS011;40603;48.774;8.916;2023-02-25T10:56:29;2.53;;;0.85;;
54705;SDS011;40603;48.774;8.916;2023-02-25T10:59:09;3.90;;;1.10;;
54705;SDS011;40603;48.774;8.916;2023-02-25T11:01:52;2.60;;;0.50;;
54705;SDS011;40603;48.774;8.916;2023-02-25T11:04:19;1.90;;;0.80;;
54705;SDS011;40603;48.774;8.916;2023-02-25T11:06:47;3.78;;;1.40;;
54705;SDS011;40603;48.774;8.916;2023-02-25T11:14:24;2.88;;;1.15;;
54705;SDS011;40603;48.774;8.916;2023-02-25T11:16:51;2.70;;;1.10;;
54705;SDS011;40603;48.774;8.916;2023-02-25T11:19:28;2.92;;;0.85;;
54705;SDS011;40603;48.774;8.916;2023-02-25T11:21:55;2.20;;;0.60;;
54705;SDS011;40603;48.774;8.916;2023-02-25T11:27:00;2.63;;;0.70;;
54705;SDS011;40603;48.774;8.916;2023-02-25T11:29:29;2.38;;;0.73;;
54705;SDS011;40603;48.774;8.916;2023-02-25T11:32:00;3.85;;;1.42;;
54705;SDS011;40603;48.774;8.916;2023-02-25T11:34:32;1.77;;;0.63;;
54705;SDS011;40603;48.774;8.916;2023-02-25T11:39:55;2.25;;;0.70;;
54705;SDS011;40603;48.774;8.916;2023-02-25T11:42:21;3.67;;;0.80;;
54705;SDS011;40603;48.774;8.916;2023-02-25T11:44:48;2.42;;;0.80;;
54705;SDS011;40603;48.774;8.916;2023-02-25T11:52:33;3.55;;;0.70;;
54705;SDS011;40603;48.774;8.916;2023-02-25T11:57:48;2.08;;;0.68;;
54705;SDS011;40603;48.774;8.916;2023-02-25T12:00:34;2.17;;;0.77;;
54705;SDS011;40603;48.774;8.916;2023-02-25T12:03:09;3.22;;;0.95;;
54705;SDS011;40603;48.774;8.916;2023-02-25T12:08:27;2.85;;;1.17;;
54705;SDS011;40603;48.774;8.916;2023-02-25T12:19:16;5.75;;;1.08;;
54705;SDS011;40603;48.774;8.916;2023-02-25T12:24:48;4.32;;;1.30;;
54705;SDS011;40603;48.774;8.916;2023-02-25T12:27:37;1.95;;;0.98;;
54705;SDS011;40603;48.774;8.916;2023-02-25T12:36:17;2.58;;;0.95;;
54705;SDS011;40603;48.774;8.916;2023-02-25T12:38:54;1.42;;;1.10;;
54705;SDS011;40603;48.774;8.916;2023-02-25T12:47:05;1.55;;;0.68;;
54705;SDS011;40603;48.774;8.916;2023-02-25T12:49:51;4.45;;;1.13;;
54705;SDS011;40603;48.774;8.916;2023-02-25T12:52:30;3.92;;;1.05;;
54705;SDS011;40603;48.774;8.916;2023-02-25T13:00:29;3.53;;;1.00;;
54705;SDS011;40603;48.774;8.916;2023-02-25T13:03:20;8.25;;;1.38;;
54705;SDS011;40603;48.774;8.916;2023-02-25T13:05:55;3.88;;;1.05;;
54705;SDS011;40603;48.774;8.916;2023-02-25T13:14:25;8.90;;;2.30;;
54705;SDS011;40603;48.774;8.916;2023-02-25T13:17:00;9.95;;;3.88;;
54705;SDS011;40603;48.774;8.916;2023-02-25T13:19:39;5.55;;;1.83;;
54705;SDS011;40603;48.774;8.916;2023-02-25T13:22:45;8.25;;;2.67;;
54705;SDS011;40603;48.774;8.916;2023-02-25T13:38:30;8.98;;;1.33;;
54705;SDS011;40603;48.774;8.916;2023-02-25T13:41:14;3.47;;;1.42;;
54705;SDS011;40603;48.774;8.916;2023-02-25T13:44:06;1.25;;;0.70;;
54705;SDS011;40603;48.774;8.916;2023-02-25T13:55:00;4.30;;;1.10;;
54705;SDS011;40603;48.774;8.916;2023-02-25T14:00:25;3.70;;;0.90;;
54705;SDS011;40603;48.774;8.916;2023-02-25T14:06:06;4.88;;;0.90;;
54705;SDS011;40603;48.774;8.916;2023-02-25T14:11:53;6.35;;;1.13;;
54705;SDS011;40603;48.774;8.916;2023-02-25T14:18:07;4.55;;;1.02;;
54705;SDS011;40603;48.774;8.916;2023-02-25T14:20:27;2.30;;;1.08;;
54705;SDS011;40603;48.774;8.916;2023-02-25T14:23:07;4.47;;;1.40;;
54705;SDS011;40603;48.774;8.916;2023-02-25T14:25:54;3.05;;;0.90;;
54705;SDS011;40603;48.774;8.916;2023-02-25T14:31:36;6.40;;;1.08;;
54705;SDS011;40603;48.774;8.916;2023-02-25T14:40:03;5.10;;;1.15;;
54705;SDS011;40603;48.774;8.916;2023-02-25T14:42:37;11.13;;;1.85;;
54705;SDS011;40603;48.774;8.916;2023-02-25T14:45:34;5.07;;;1.10;;
54705;SDS011;40603;48.774;8.916;2023-02-25T14:48:04;3.17;;;1.10;;
54705;SDS011;40603;48.774;8.916;2023-02-25T15:01:26;4.75;;;1.38;;
54705;SDS011;40603;48.774;8.916;2023-02-25T15:06:41;4.28;;;1.25;;
54705;SDS011;40603;48.774;8.916;2023-02-25T15:12:13;4.75;;;1.15;;
54705;SDS011;40603;48.774;8.916;2023-02-25T15:20:24;7.20;;;1.33;;
54705;SDS011;40603;48.774;8.916;2023-02-25T15:23:16;3.00;;;1.02;;
54705;SDS011;40603;48.774;8.916;2023-02-25T15:38:51;5.15;;;1.50;;
54705;SDS011;40603;48.774;8.916;2023-02-25T15:51:56;7.35;;;1.98;;
54705;SDS011;40603;48.774;8.916;2023-02-25T15:56:57;4.47;;;1.30;;
54705;SDS011;40603;48.774;8.916;2023-02-25T15:59:40;6.20;;;1.20;;
54705;SDS011;40603;48.774;8.916;2023-02-25T16:07:39;6.55;;;1.80;;
54705;SDS011;40603;48.774;8.916;2023-02-25T16:12:42;3.38;;;1.13;;
54705;SDS011;40603;48.774;8.916;2023-02-25T16:15:12;3.28;;;1.50;;
54705;SDS011;40603;48.774;8.916;2023-02-25T16:17:42;9.57;;;1.25;;
54705;SDS011;40603;48.774;8.916;2023-02-25T16:22:42;7.70;;;2.10;;
54705;SDS011;40603;48.774;8.916;2023-02-25T16:25:11;7.47;;;1.58;;
54705;SDS011;40603;48.774;8.916;2023-02-25T16:27:50;8.23;;;1.70;;
54705;SDS011;40603;48.774;8.916;2023-02-25T16:30:28;6.20;;;2.40;;
54705;SDS011;40603;48.774;8.916;2023-02-25T16:35:48;6.93;;;2.38;;
54705;SDS011;40603;48.774;8.916;2023-02-25T16:38:18;5.90;;;2.08;;
54705;SDS011;40603;48.774;8.916;2023-02-25T16:40:49;3.95;;;1.40;;
54705;SDS011;40603;48.774;8.916;2023-02-25T16:43:16;7.05;;;1.80;;
54705;SDS011;40603;48.774;8.916;2023-02-25T16:48:27;7.55;;;2.13;;
54705;SDS011;40603;48.774;8.916;2023-02-25T16:50:55;5.30;;;1.65;;
54705;SDS011;40603;48.774;8.916;2023-02-25T16:53:21;9.30;;;1.70;;
54705;SDS011;40603;48.774;8.916;2023-02-25T16:55:48;7.15;;;2.25;;
54705;SDS011;40603;48.774;8.916;2023-02-25T17:00:56;8.20;;;1.75;;
54705;SDS011;40603;48.774;8.916;2023-02-25T17:03:25;6.13;;;1.38;;
54705;SDS011;40603;48.774;8.916;2023-02-25T17:05:59;10.32;;;2.40;;
54705;SDS011;40603;48.774;8.916;2023-02-25T17:08:30;9.13;;;2.05;;
54705;SDS011;40603;48.774;8.916;2023-02-25T17:10:56;13.30;;;2.25;;
54705;SDS011;40603;48.774;8.916;2023-02-25T17:13:24;11.30;;;2.22;;
54705;SDS011;40603;48.774;8.916;2023-02-25T17:15:52;9.35;;;2.25;;
54705;SDS011;40603;48.774;8.916;2023-02-25T17:18:19;9.20;;;1.80;;
54705;SDS011;40603;48.774;8.916;2023-02-25T17:20:48;7.45;;;2.38;;
54705;SDS011;40603;48.774;8.916;2023-02-25T17:23:14;6.38;;;1.70;;
54705;SDS011;40603;48.774;8.916;2023-02-25T17:25:41;5.93;;;2.13;;
54705;SDS011;40603;48.774;8.916;2023-02-25T17:28:15;5.10;;;1.65;;
54705;SDS011;40603;48.774;8.916;2023-02-25T17:30:49;6.15;;;2.30;;
54705;SDS011;40603;48.774;8.916;2023-02-25T17:33:25;6.55;;;1.73;;
54705;SDS011;40603;48.774;8.916;2023-02-25T17:35:53;6.68;;;2.65;;
54705;SDS011;40603;48.774;8.916;2023-02-25T17:38:22;4.80;;;1.90;;
54705;SDS011;40603;48.774;8.916;2023-02-25T17:40:51;3.97;;;1.10;;
54705;SDS011;40603;48.774;8.916;2023-02-25T17:43:23;4.68;;;1.20;;
54705;SDS011;40603;48.774;8.916;2023-02-25T17:45:51;1.15;;;0.80;;
54705;SDS011;40603;48.774;8.916;2023-02-25T17:48:19;2.10;;;1.00;;
54705;SDS011;40603;48.774;8.916;2023-02-25T17:50:50;4.20;;;1.45;;
54705;SDS011;40603;48.774;8.916;2023-02-25T17:53:24;3.10;;;1.40;;
54705;SDS011;40603;48.774;8.916;2023-02-25T17:56:07;4.50;;;1.98;;
54705;SDS011;40603;48.774;8.916;2023-02-25T17:58:33;2.95;;;1.48;;
54705;SDS011;40603;48.774;8.916;2023-02-25T18:00:59;3.92;;;1.33;;
54705;SDS011;40603;48.774;8.916;2023-02-25T18:03:29;1.23;;;1.00;;
54705;SDS011;40603;48.774;8.916;2023-02-25T18:06:12;4.18;;;1.65;;
54705;SDS011;40603;48.774;8.916;2023-02-25T18:08:52;3.45;;;1.20;;
54705;SDS011;40603;48.774;8.916;2023-02-25T18:11:25;1.52;;;1.00;;
54705;SDS011;40603;48.774;8.916;2023-02-25T18:13:55;2.33;;;1.00;;
54705;SDS011;40603;48.774;8.916;2023-02-25T18:19:00;4.65;;;1.27;;
54705;SDS011;40603;48.774;8.916;2023-02-25T18:21:26;1.67;;;1.13;;
54705;SDS011;40603;48.774;8.916;2023-02-25T18:23:52;1.00;;;0.80;;
54705;SDS011;40603;48.774;8.916;2023-02-25T18:26:21;5.03;;;1.90;;